createdAt,value
2023-03-12T00:00:39.595Z,11.77
2023-03-12T00:03:41.476Z,13.32
2023-03-12T00:06:43.104Z,13.82
2023-03-12T00:09:45.784Z,11.97
2023-03-12T00:12:47.415Z,12.27
2023-03-12T00:15:49.090Z,12.80
2023-03-12T00:18:52.818Z,12.05
2023-03-12T00:21:54.491Z,15.23
2023-03-12T00:24:57.033Z,11.27
2023-03-12T00:27:58.801Z,14.05
2023-03-12T00:31:00.922Z,14.20
2023-03-12T00:34:03.149Z,14.25
2023-03-12T00:37:04.878Z,13.65
2023-03-12T00:40:09.191Z,15.27
2023-03-12T00:43:10.862Z,15.80
2023-03-12T00:46:12.820Z,14.63
2023-03-12T00:49:14.400Z,13.90
2023-03-12T00:52:16.142Z,18.52
2023-03-12T00:55:17.921Z,15.70
2023-03-12T00:58:19.662Z,14.50
2023-03-12T01:01:22.142Z,17.57
2023-03-12T01:04:24.233Z,18.33
2023-03-12T01:07:26.004Z,14.40
2023-03-12T01:10:27.659Z,17.93
2023-03-12T01:13:30.014Z,17.35
2023-03-12T01:16:32.270Z,14.23
2023-03-12T01:19:33.897Z,15.55
2023-03-12T01:22:36.218Z,14.32
2023-03-12T01:25:38.096Z,15.05
2023-03-12T01:28:39.748Z,12.93
2023-03-12T01:31:41.426Z,13.73
2023-03-12T01:34:43.835Z,16.15
2023-03-12T01:37:45.689Z,17.55
2023-03-12T01:40:47.401Z,12.00
2023-03-12T01:43:49.373Z,12.23
2023-03-12T01:46:51.142Z,12.73
2023-03-12T01:49:56.793Z,12.50
2023-03-12T01:53:03.717Z,11.80
2023-03-12T01:56:08.302Z,11.35
2023-03-12T01:59:22.442Z,10.75
2023-03-12T02:02:27.186Z,10.70
2023-03-12T02:05:38.158Z,11.23
2023-03-12T02:08:44.069Z,10.70
2023-03-12T02:11:47.160Z,10.53
2023-03-12T02:14:49.959Z,9.77
2023-03-12T02:17:52.590Z,10.68
2023-03-12T02:21:12.924Z,11.07
2023-03-12T02:24:26.850Z,13.23
2023-03-12T02:27:28.630Z,10.73
2023-03-12T02:30:31.507Z,11.40
2023-03-12T02:33:33.244Z,9.27
2023-03-12T02:36:35.601Z,10.82
2023-03-12T02:39:39.106Z,12.98
2023-03-12T02:42:40.692Z,11.13
2023-03-12T02:45:42.512Z,10.27
2023-03-12T02:48:44.116Z,10.05
2023-03-12T02:51:48.271Z,12.63
2023-03-12T02:54:50.011Z,10.07
2023-03-12T02:57:52.440Z,13.48
2023-03-12T03:00:54.438Z,10.63
2023-03-12T03:03:56.213Z,10.10
2023-03-12T03:06:57.988Z,11.68
2023-03-12T03:10:04.209Z,9.68
2023-03-12T03:13:06.726Z,9.70
2023-03-12T03:16:08.945Z,11.98
2023-03-12T03:19:11.438Z,10.98
2023-03-12T03:22:13.113Z,9.35
2023-03-12T03:25:14.756Z,8.18
2023-03-12T03:28:16.523Z,12.15
2023-03-12T03:31:18.753Z,9.88
2023-03-12T03:34:21.056Z,10.50
2023-03-12T03:37:22.866Z,11.02
2023-03-12T03:40:25.397Z,9.18
2023-03-12T03:43:27.570Z,10.40
2023-03-12T03:46:30.540Z,13.25
2023-03-12T03:49:36.859Z,10.65
2023-03-12T03:52:38.591Z,10.52
2023-03-12T03:55:41.165Z,12.00
2023-03-12T03:58:44.386Z,10.70
2023-03-12T04:01:46.504Z,10.93
2023-03-12T04:04:48.801Z,12.40
2023-03-12T04:07:52.957Z,12.05
2023-03-12T04:10:57.243Z,11.05
2023-03-12T04:13:59.059Z,13.60
2023-03-12T04:17:04.524Z,11.65
2023-03-12T04:20:08.609Z,11.15
2023-03-12T04:23:10.805Z,10.77
2023-03-12T04:26:12.811Z,13.75
2023-03-12T04:29:15.635Z,12.77
2023-03-12T04:32:17.756Z,13.18
2023-03-12T04:35:20.117Z,11.57
2023-03-12T04:38:27.666Z,11.40
2023-03-12T04:41:30.581Z,13.00
2023-03-12T04:44:41.614Z,14.17
2023-03-12T04:47:43.484Z,11.98
2023-03-12T04:50:45.756Z,14.13
2023-03-12T04:53:47.705Z,12.45
2023-03-12T04:56:50.967Z,13.13
2023-03-12T04:59:55.440Z,11.15
2023-03-12T05:02:57.675Z,11.77
2023-03-12T05:06:03.162Z,13.50
2023-03-12T05:09:06.613Z,12.35
2023-03-12T05:12:13.679Z,12.32
2023-03-12T05:15:20.152Z,14.13
2023-03-12T05:18:24.748Z,12.80
2023-03-12T05:21:26.727Z,12.38
2023-03-12T05:24:34.929Z,13.52
2023-03-12T05:27:41.089Z,13.60
2023-03-12T05:30:44.194Z,12.02
2023-03-12T05:33:46.502Z,12.23
2023-03-12T05:36:59.600Z,13.17
2023-03-12T05:40:05.096Z,13.68
2023-03-12T05:43:08.708Z,14.55
2023-03-12T05:46:14.558Z,12.83
2023-03-12T05:49:20.799Z,16.80
2023-03-12T05:52:25.635Z,16.77
2023-03-12T05:55:28.520Z,15.82
2023-03-12T05:58:36.896Z,13.13
2023-03-12T06:01:40.880Z,16.30
2023-03-12T06:04:45.178Z,14.07
2023-03-12T06:07:47.004Z,14.77
2023-03-12T06:10:52.659Z,13.85
2023-03-12T06:14:00.240Z,17.17
2023-03-12T06:17:04.975Z,17.37
2023-03-12T06:20:09.098Z,15.75
2023-03-12T06:23:14.991Z,16.92
2023-03-12T06:26:19.110Z,19.15
2023-03-12T06:29:24.421Z,16.65
2023-03-12T06:32:26.207Z,17.77
2023-03-12T06:35:27.970Z,18.02
2023-03-12T06:38:30.727Z,19.77
2023-03-12T06:41:37.449Z,17.83
2023-03-12T06:44:40.546Z,16.60
2023-03-12T06:47:46.859Z,17.10
2023-03-12T06:50:49.006Z,17.55
2023-03-12T06:53:52.330Z,17.48
2023-03-12T06:56:56.907Z,19.38
2023-03-12T07:00:02.485Z,16.73
2023-03-12T07:03:04.475Z,18.17
2023-03-12T07:06:16.896Z,21.98
2023-03-12T07:09:31.247Z,20.80
2023-03-12T07:12:34.847Z,20.27
2023-03-12T07:15:40.013Z,20.58
2023-03-12T07:18:44.983Z,19.97
2023-03-12T07:21:50.525Z,18.75
2023-03-12T07:24:52.616Z,20.17
2023-03-12T07:27:54.927Z,18.60
2023-03-12T07:31:05.243Z,17.55
2023-03-12T07:34:07.099Z,18.92
2023-03-12T07:37:08.915Z,18.85
2023-03-12T07:40:12.939Z,21.57
2023-03-12T07:43:15.317Z,19.92
2023-03-12T07:46:19.858Z,18.75
2023-03-12T07:49:22.632Z,17.83
2023-03-12T07:52:24.374Z,17.95
2023-03-12T07:55:26.783Z,16.95
2023-03-12T07:58:28.717Z,17.42
2023-03-12T08:01:32.179Z,16.63
2023-03-12T08:04:34.146Z,16.40
2023-03-12T08:07:38.278Z,15.30
2023-03-12T08:10:41.088Z,18.27
2023-03-12T08:13:44.377Z,21.63
2023-03-12T08:16:46.828Z,18.73
2023-03-12T08:19:48.644Z,15.87
2023-03-12T08:22:51.788Z,15.70
2023-03-12T08:25:56.457Z,11.85
2023-03-12T08:29:02.658Z,14.45
2023-03-12T08:32:05.863Z,13.93
2023-03-12T08:35:08.102Z,12.77
2023-03-12T08:38:09.948Z,10.82
2023-03-12T08:41:12.390Z,12.57
2023-03-12T08:44:16.693Z,10.82
2023-03-12T08:47:19.501Z,12.13
2023-03-12T08:50:22.890Z,13.23
2023-03-12T08:53:27.902Z,11.20
2023-03-12T08:56:31.834Z,10.00
2023-03-12T08:59:37.418Z,9.30
2023-03-12T09:02:39.543Z,11.77
2023-03-12T09:05:44.358Z,13.98
2023-03-12T09:08:47.494Z,15.02
2023-03-12T09:11:50.873Z,14.07
2023-03-12T09:15:09.510Z,12.98
2023-03-12T09:18:11.614Z,12.55
2023-03-12T09:21:14.448Z,12.23
2023-03-12T09:24:18.823Z,13.57
2023-03-12T09:27:22.488Z,21.75
2023-03-12T09:30:29.064Z,18.42
2023-03-12T09:33:35.931Z,16.38
2023-03-12T09:36:41.199Z,14.82
2023-03-12T09:39:44.576Z,16.63
2023-03-12T09:42:53.784Z,10.10
2023-03-12T09:45:58.473Z,11.52
2023-03-12T09:49:07.118Z,13.52
2023-03-12T09:52:26.576Z,10.23
2023-03-12T09:55:37.380Z,10.00
2023-03-12T09:58:42.514Z,9.55
2023-03-12T10:02:02.855Z,10.00
2023-03-12T10:05:37.496Z,11.18
2023-03-12T10:09:15.492Z,8.88
2023-03-12T10:12:24.686Z,9.85
2023-03-12T10:15:39.463Z,14.07
2023-03-12T10:19:08.902Z,12.40
2023-03-12T10:22:21.110Z,10.18
2023-03-12T10:25:53.081Z,11.20
2023-03-12T10:29:38.640Z,9.65
2023-03-12T10:32:48.443Z,9.77
2023-03-12T10:35:51.986Z,10.80
2023-03-12T10:38:53.991Z,11.05
2023-03-12T10:42:00.076Z,10.27
2023-03-12T10:45:30.843Z,9.50
2023-03-12T10:48:33.962Z,10.40
2023-03-12T10:51:56.584Z,10.57
2023-03-12T10:55:27.504Z,10.30
2023-03-12T10:58:36.034Z,10.27
2023-03-12T11:01:51.797Z,11.60
2023-03-12T11:04:54.688Z,11.10
2023-03-12T11:08:01.164Z,10.05
2023-03-12T11:11:05.864Z,12.23
2023-03-12T11:14:21.796Z,10.70
2023-03-12T11:17:26.920Z,9.60
2023-03-12T11:20:30.732Z,11.87
2023-03-12T11:23:38.956Z,11.25
2023-03-12T11:27:22.430Z,12.65
2023-03-12T11:30:45.381Z,11.67
2023-03-12T11:33:53.089Z,12.00
2023-03-12T11:37:17.551Z,11.93
2023-03-12T11:40:48.787Z,12.63
2023-03-12T11:44:22.395Z,19.02
2023-03-12T11:47:53.059Z,16.63
2023-03-12T11:51:29.277Z,14.23
2023-03-12T11:55:17.202Z,15.63
2023-03-12T11:58:56.389Z,20.05
2023-03-12T12:02:13.368Z,19.40
2023-03-12T12:05:38.972Z,15.00
2023-03-12T12:08:56.398Z,18.17
2023-03-12T12:12:05.860Z,15.73
2023-03-12T12:15:16.795Z,11.55
2023-03-12T12:18:44.579Z,13.23
2023-03-12T12:22:47.165Z,12.48
2023-03-12T12:26:11.230Z,10.73
2023-03-12T12:29:51.626Z,10.33
2023-03-12T12:33:15.518Z,9.93
2023-03-12T12:36:18.685Z,11.13
2023-03-12T12:39:35.185Z,10.17
2023-03-12T12:42:51.499Z,9.98
2023-03-12T12:45:55.493Z,12.13
2023-03-12T12:49:21.134Z,10.32
2023-03-12T12:52:23.080Z,10.15
2023-03-12T12:56:03.446Z,10.07
2023-03-12T12:59:22.003Z,9.68
2023-03-12T13:02:30.887Z,10.10
2023-03-12T13:05:46.031Z,9.20
2023-03-12T13:08:47.747Z,10.98
2023-03-12T13:11:55.681Z,9.30
2023-03-12T13:15:02.240Z,10.45
2023-03-12T13:18:30.869Z,12.60
2023-03-12T13:21:40.807Z,9.45
2023-03-12T13:25:19.361Z,10.15
2023-03-12T13:28:45.624Z,9.88
2023-03-12T13:31:58.287Z,8.02
2023-03-12T13:35:28.190Z,10.53
2023-03-12T13:38:53.924Z,10.48
2023-03-12T13:41:58.558Z,9.40
2023-03-12T13:45:26.622Z,12.07
2023-03-12T13:48:28.331Z,8.88
2023-03-12T13:51:29.989Z,8.35
2023-03-12T13:54:34.260Z,9.05
2023-03-12T13:57:44.664Z,7.10
2023-03-12T14:00:55.154Z,8.43
2023-03-12T14:04:05.372Z,8.70
2023-03-12T14:07:41.181Z,6.43
2023-03-12T14:10:51.386Z,7.70
2023-03-12T14:14:33.326Z,8.85
2023-03-12T14:17:36.798Z,8.27
2023-03-12T14:20:39.265Z,6.82
2023-03-12T14:23:56.516Z,7.00
2023-03-12T14:26:59.280Z,9.68
2023-03-12T14:30:33.539Z,7.43
2023-03-12T14:34:03.229Z,6.10
2023-03-12T14:37:18.120Z,6.43
2023-03-12T14:40:30.619Z,6.00
2023-03-12T14:43:34.928Z,10.02
2023-03-12T14:46:37.188Z,8.30
2023-03-12T14:49:41.602Z,7.63
2023-03-12T14:52:43.310Z,8.95
2023-03-12T14:55:44.879Z,7.13
2023-03-12T14:58:52.691Z,8.52
2023-03-12T15:02:13.852Z,8.67
2023-03-12T15:05:18.297Z,9.60
2023-03-12T15:08:20.337Z,8.85
2023-03-12T15:11:29.640Z,7.37
2023-03-12T15:14:41.128Z,7.95
2023-03-12T15:17:42.934Z,8.23
2023-03-12T15:20:46.538Z,7.05
2023-03-12T15:23:49.474Z,7.90
2023-03-12T15:26:51.175Z,8.73
2023-03-12T15:29:52.996Z,7.25
2023-03-12T15:33:21.692Z,7.40
2023-03-12T15:36:31.637Z,7.47
2023-03-12T15:39:38.293Z,6.38
2023-03-12T15:42:46.117Z,7.87
2023-03-12T15:46:02.599Z,5.75
2023-03-12T15:49:04.299Z,7.85
2023-03-12T15:52:34.785Z,6.03
2023-03-12T15:55:36.737Z,8.18
2023-03-12T15:58:43.361Z,5.97
2023-03-12T16:01:50.834Z,5.55
2023-03-12T16:04:52.612Z,5.83
2023-03-12T16:07:54.668Z,6.18
2023-03-12T16:10:57.881Z,6.25
2023-03-12T16:14:26.857Z,5.50
2023-03-12T16:17:29.010Z,5.25
2023-03-12T16:20:31.956Z,4.93
2023-03-12T16:23:33.982Z,4.40
2023-03-12T16:26:43.093Z,5.35
2023-03-12T16:29:47.301Z,7.03
2023-03-12T16:32:50.433Z,5.85
2023-03-12T16:35:53.103Z,5.40
2023-03-12T16:38:58.029Z,6.80
2023-03-12T16:42:04.199Z,5.38
2023-03-12T16:45:10.797Z,5.20
2023-03-12T16:48:20.722Z,6.18
2023-03-12T16:51:31.973Z,5.72
2023-03-12T16:54:36.629Z,5.25
2023-03-12T16:58:05.262Z,6.55
2023-03-12T17:01:15.271Z,5.15
2023-03-12T17:04:17.323Z,5.85
2023-03-12T17:07:21.677Z,6.87
2023-03-12T17:10:33.404Z,5.38
2023-03-12T17:13:45.093Z,7.22
2023-03-12T17:16:48.193Z,6.93
2023-03-12T17:19:52.161Z,8.68
2023-03-12T17:22:55.252Z,6.45
2023-03-12T17:25:59.885Z,7.75
2023-03-12T17:29:04.869Z,6.82
2023-03-12T17:32:18.677Z,5.90
2023-03-12T17:35:21.297Z,8.50
2023-03-12T17:38:24.333Z,8.67
2023-03-12T17:41:27.788Z,7.03
2023-03-12T17:44:38.738Z,6.72
2023-03-12T17:47:55.400Z,8.07
2023-03-12T17:51:00.576Z,7.10
2023-03-12T17:54:06.747Z,8.05
2023-03-12T17:57:09.158Z,8.50
2023-03-12T18:00:13.443Z,6.00
2023-03-12T18:03:19.142Z,7.65
2023-03-12T18:06:26.936Z,9.02
2023-03-12T18:09:34.305Z,9.53
2023-03-12T18:12:38.039Z,7.32
2023-03-12T18:15:41.466Z,8.85
2023-03-12T18:18:44.426Z,8.03
2023-03-12T18:21:48.908Z,8.27
2023-03-12T18:24:51.252Z,10.48
2023-03-12T18:27:56.662Z,9.45
2023-03-12T18:31:01.203Z,9.90
2023-03-12T18:34:06.418Z,7.05
2023-03-12T18:37:10.833Z,8.60
2023-03-12T18:40:15.613Z,7.00
2023-03-12T18:43:21.735Z,5.80
2023-03-12T18:46:24.756Z,9.05
2023-03-12T18:49:28.061Z,6.83
2023-03-12T18:52:31.678Z,7.47
2023-03-12T18:55:38.184Z,7.35
2023-03-12T18:58:46.830Z,7.65
2023-03-12T19:01:50.817Z,10.45
2023-03-12T19:04:56.830Z,7.07
2023-03-12T19:08:01.444Z,7.63
2023-03-12T19:11:27.495Z,7.73
2023-03-12T19:14:34.245Z,8.68
2023-03-12T19:17:36.907Z,7.30
2023-03-12T19:20:41.361Z,9.33
2023-03-12T19:23:46.740Z,6.85
2023-03-12T19:26:49.602Z,8.57
2023-03-12T19:29:53.399Z,8.75
2023-03-12T19:36:12.308Z,8.02
2023-03-12T19:39:21.456Z,7.20
2023-03-12T19:42:26.330Z,8.50
2023-03-12T19:45:32.320Z,10.20
2023-03-12T19:48:35.208Z,7.65
2023-03-12T19:51:37.177Z,7.07
2023-03-12T19:54:38.805Z,8.75
2023-03-12T19:57:41.014Z,7.50
2023-03-12T20:00:46.425Z,7.88
2023-03-12T20:03:48.125Z,8.68
2023-03-12T20:06:51.522Z,11.20
2023-03-12T20:09:53.409Z,8.20
2023-03-12T20:12:58.729Z,7.73
2023-03-12T20:16:02.394Z,10.38
2023-03-12T20:19:04.511Z,8.27
2023-03-12T20:22:09.782Z,6.50
2023-03-12T20:25:13.262Z,9.07
2023-03-12T20:28:17.173Z,9.25
2023-03-12T20:31:23.436Z,10.10
2023-03-12T20:34:34.227Z,8.25
2023-03-12T20:37:37.918Z,10.10
2023-03-12T20:40:45.576Z,7.80
2023-03-12T20:43:58.120Z,8.90
2023-03-12T20:47:01.223Z,11.57
2023-03-12T20:50:06.472Z,10.05
2023-03-12T20:53:12.356Z,9.53
2023-03-12T20:56:13.972Z,7.25
2023-03-12T20:59:15.603Z,7.80
2023-03-12T21:02:17.830Z,9.05
2023-03-12T21:05:19.430Z,8.68
2023-03-12T21:08:21.908Z,10.38
2023-03-12T21:11:24.716Z,8.10
2023-03-12T21:14:26.293Z,8.53
2023-03-12T21:17:27.915Z,8.40
2023-03-12T21:20:29.517Z,8.65
2023-03-12T21:23:32.549Z,8.53
2023-03-12T21:26:34.243Z,8.73
2023-03-12T21:29:35.988Z,8.00
2023-03-12T21:32:37.627Z,10.25
2023-03-12T21:35:43.888Z,10.05
2023-03-12T21:38:45.579Z,7.88
2023-03-12T21:41:47.160Z,7.35
2023-03-12T21:44:50.732Z,7.27
2023-03-12T21:47:57.203Z,7.28
2023-03-12T21:51:05.032Z,7.90
2023-03-12T21:54:07.726Z,7.23
2023-03-12T21:57:13.505Z,6.97
2023-03-12T22:00:17.974Z,7.45
2023-03-12T22:03:21.577Z,8.00
2023-03-12T22:06:24.680Z,7.65
2023-03-12T22:09:27.892Z,7.30
2023-03-12T22:12:31.086Z,6.30
2023-03-12T22:15:34.225Z,6.97
2023-03-12T22:18:44.944Z,9.65
2023-03-12T22:21:47.357Z,6.65
2023-03-12T22:24:49.416Z,8.50
2023-03-12T22:27:53.407Z,7.88
2023-03-12T22:31:06.918Z,8.70
2023-03-12T22:34:11.853Z,7.70
2023-03-12T22:37:19.729Z,9.32
2023-03-12T22:40:21.765Z,8.43
2023-03-12T22:43:34.381Z,9.13
2023-03-12T22:46:37.669Z,7.30
2023-03-12T22:49:43.033Z,9.68
2023-03-12T22:52:51.296Z,9.32
2023-03-12T22:56:23.221Z,8.60
2023-03-12T22:59:24.900Z,8.52
2023-03-12T23:02:27.841Z,8.32
2023-03-12T23:05:31.461Z,9.77
2023-03-12T23:08:33.222Z,8.10
2023-03-12T23:11:37.316Z,9.18
2023-03-12T23:14:39.314Z,8.85
2023-03-12T23:17:41.329Z,7.87
2023-03-12T23:20:45.344Z,9.32
2023-03-12T23:23:47.864Z,8.80
2023-03-12T23:26:49.702Z,8.17
2023-03-12T23:29:52.919Z,8.07
2023-03-12T23:33:02.600Z,6.93
2023-03-12T23:36:14.292Z,9.98
2023-03-12T23:39:19.432Z,7.03
2023-03-12T23:42:22.693Z,7.80
2023-03-12T23:45:25.922Z,8.95
2023-03-12T23:48:29.875Z,11.07
2023-03-12T23:51:33.584Z,8.77
2023-03-12T23:54:43.784Z,10.32
2023-03-12T23:57:48.023Z,9.83
